sensor_id;sensor_type;location;lat;lon;timestamp;temperature;humidity
25200;DHT22;33094;48.782;9.162;2022-08-04T00:00:43;24.10;92.00
25200;DHT22;33094;48.782;9.162;2022-08-04T00:03:11;24.00;92.10
25200;DHT22;33094;48.782;9.162;2022-08-04T00:10:40;24.00;92.20
25200;DHT22;33094;48.782;9.162;2022-08-04T00:13:08;24.00;92.10
25200;DHT22;33094;48.782;9.162;2022-08-04T00:15:35;24.10;91.90
25200;DHT22;33094;48.782;9.162;2022-08-04T00:18:07;24.10;91.90
25200;DHT22;33094;48.782;9.162;2022-08-04T00:20:39;24.00;92.00
25200;DHT22;33094;48.782;9.162;2022-08-04T00:23:06;24.00;92.10
25200;DHT22;33094;48.782;9.162;2022-08-04T00:25:32;23.90;92.20
25200;DHT22;33094;48.782;9.162;2022-08-04T00:27:59;24.70;92.30
25200;DHT22;33094;48.782;9.162;2022-08-04T00:30:25;23.90;92.40
25200;DHT22;33094;48.782;9.162;2022-08-04T00:32:51;23.90;92.20
25200;DHT22;33094;48.782;9.162;2022-08-04T00:35:16;23.90;92.30
25200;DHT22;33094;48.782;9.162;2022-08-04T00:42:43;24.20;92.50
25200;DHT22;33094;48.782;9.162;2022-08-04T00:50:07;23.70;92.50
25200;DHT22;33094;48.782;9.162;2022-08-04T00:52:43;23.70;92.60
25200;DHT22;33094;48.782;9.162;2022-08-04T00:55:15;23.80;92.60
25200;DHT22;33094;48.782;9.162;2022-08-04T01:00:28;23.70;92.70
25200;DHT22;33094;48.782;9.162;2022-08-04T01:16:04;23.40;93.20
25200;DHT22;33094;48.782;9.162;2022-08-04T01:23:48;23.40;93.60
25200;DHT22;33094;48.782;9.162;2022-08-04T01:31:29;23.30;93.80
25200;DHT22;33094;48.782;9.162;2022-08-04T01:33:55;23.20;94.40
25200;DHT22;33094;48.782;9.162;2022-08-04T01:36:24;23.10;94.30
25200;DHT22;33094;48.782;9.162;2022-08-04T01:38:50;23.10;94.10
25200;DHT22;33094;48.782;9.162;2022-08-04T01:41:18;23.90;94.60
25200;DHT22;33094;48.782;9.162;2022-08-04T01:43:44;23.00;94.40
25200;DHT22;33094;48.782;9.162;2022-08-04T01:46:11;22.90;95.00
25200;DHT22;33094;48.782;9.162;2022-08-04T01:48:37;22.90;95.50
25200;DHT22;33094;48.782;9.162;2022-08-04T01:51:04;22.80;95.40
25200;DHT22;33094;48.782;9.162;2022-08-04T01:53:30;22.80;95.60
25200;DHT22;33094;48.782;9.162;2022-08-04T01:55:57;22.70;95.50
25200;DHT22;33094;48.782;9.162;2022-08-04T01:58:23;22.70;96.00
25200;DHT22;33094;48.782;9.162;2022-08-04T02:00:56;22.80;96.00
25200;DHT22;33094;48.782;9.162;2022-08-04T02:03:22;22.80;95.90
25200;DHT22;33094;48.782;9.162;2022-08-04T02:05:48;22.70;95.90
25200;DHT22;33094;48.782;9.162;2022-08-04T02:08:18;22.70;96.10
25200;DHT22;33094;48.782;9.162;2022-08-04T02:13:25;23.20;95.90
25200;DHT22;33094;48.782;9.162;2022-08-04T02:16:00;22.80;95.80
25200;DHT22;33094;48.782;9.162;2022-08-04T02:18:30;22.70;95.60
25200;DHT22;33094;48.782;9.162;2022-08-04T02:20:59;22.60;94.90
25200;DHT22;33094;48.782;9.162;2022-08-04T02:23:40;22.60;95.60
25200;DHT22;33094;48.782;9.162;2022-08-04T02:26:10;22.50;95.90
25200;DHT22;33094;48.782;9.162;2022-08-04T02:33:42;22.40;95.90
25200;DHT22;33094;48.782;9.162;2022-08-04T02:36:09;22.50;95.50
25200;DHT22;33094;48.782;9.162;2022-08-04T02:38:39;22.60;95.10
25200;DHT22;33094;48.782;9.162;2022-08-04T02:41:08;22.60;95.00
25200;DHT22;33094;48.782;9.162;2022-08-04T02:43:34;22.60;95.20
25200;DHT22;33094;48.782;9.162;2022-08-04T02:46:00;22.60;95.00
25200;DHT22;33094;48.782;9.162;2022-08-04T02:48:27;22.60;94.90
25200;DHT22;33094;48.782;9.162;2022-08-04T02:50:55;22.70;95.00
25200;DHT22;33094;48.782;9.162;2022-08-04T02:53:22;22.60;94.90
25200;DHT22;33094;48.782;9.162;2022-08-04T02:55:48;22.60;94.90
25200;DHT22;33094;48.782;9.162;2022-08-04T02:58:16;22.50;94.90
25200;DHT22;33094;48.782;9.162;2022-08-04T03:00:43;22.40;95.00
25200;DHT22;33094;48.782;9.162;2022-08-04T03:13:39;22.30;95.40
25200;DHT22;33094;48.782;9.162;2022-08-04T03:24:18;22.30;95.60
25200;DHT22;33094;48.782;9.162;2022-08-04T03:26:51;22.20;95.80
25200;DHT22;33094;48.782;9.162;2022-08-04T03:32:00;22.20;95.80
25200;DHT22;33094;48.782;9.162;2022-08-04T03:40:00;22.30;95.90
25200;DHT22;33094;48.782;9.162;2022-08-04T03:43:11;22.20;95.70
25200;DHT22;33094;48.782;9.162;2022-08-04T03:53:20;22.00;96.10
25200;DHT22;33094;48.782;9.162;2022-08-04T03:58:54;21.90;96.00
25200;DHT22;33094;48.782;9.162;2022-08-04T04:11:56;21.80;96.20
25200;DHT22;33094;48.782;9.162;2022-08-04T04:14:47;21.80;96.20
25200;DHT22;33094;48.782;9.162;2022-08-04T04:35:20;21.80;96.30
25200;DHT22;33094;48.782;9.162;2022-08-04T04:45:23;21.80;97.30
25200;DHT22;33094;48.782;9.162;2022-08-04T04:50:50;22.00;97.40
25200;DHT22;33094;48.782;9.162;2022-08-04T04:55:53;21.90;97.20
25200;DHT22;33094;48.782;9.162;2022-08-04T04:58:20;21.90;97.10
25200;DHT22;33094;48.782;9.162;2022-08-04T05:13:58;21.90;97.60
25200;DHT22;33094;48.782;9.162;2022-08-04T05:16:33;22.00;97.10
25200;DHT22;33094;48.782;9.162;2022-08-04T05:19:08;22.10;96.90
25200;DHT22;33094;48.782;9.162;2022-08-04T05:21:46;22.10;97.00
25200;DHT22;33094;48.782;9.162;2022-08-04T05:24:13;22.10;96.70
25200;DHT22;33094;48.782;9.162;2022-08-04T05:26:43;22.20;96.30
25200;DHT22;33094;48.782;9.162;2022-08-04T05:29:10;22.20;96.10
25200;DHT22;33094;48.782;9.162;2022-08-04T05:31:37;22.30;95.80
25200;DHT22;33094;48.782;9.162;2022-08-04T05:34:06;22.30;96.20
25200;DHT22;33094;48.782;9.162;2022-08-04T05:36:37;22.50;96.10
25200;DHT22;33094;48.782;9.162;2022-08-04T05:39:05;22.40;95.90
25200;DHT22;33094;48.782;9.162;2022-08-04T05:41:31;22.60;95.70
25200;DHT22;33094;48.782;9.162;2022-08-04T05:43:57;22.70;95.90
25200;DHT22;33094;48.782;9.162;2022-08-04T05:46:24;22.60;95.60
25200;DHT22;33094;48.782;9.162;2022-08-04T05:48:51;23.80;96.10
25200;DHT22;33094;48.782;9.162;2022-08-04T05:51:17;22.80;95.60
25200;DHT22;33094;48.782;9.162;2022-08-04T05:53:43;23.70;95.20
25200;DHT22;33094;48.782;9.162;2022-08-04T05:56:13;26.90;92.50
25200;DHT22;33094;48.782;9.162;2022-08-04T05:58:39;28.70;90.80
25200;DHT22;33094;48.782;9.162;2022-08-04T06:01:05;27.80;90.30
25200;DHT22;33094;48.782;9.162;2022-08-04T06:03:32;25.70;92.50
25200;DHT22;33094;48.782;9.162;2022-08-04T06:05:59;24.50;93.80
25200;DHT22;33094;48.782;9.162;2022-08-04T06:08:25;24.10;94.30
25200;DHT22;33094;48.782;9.162;2022-08-04T06:10:51;23.90;94.60
25200;DHT22;33094;48.782;9.162;2022-08-04T06:13:18;24.00;94.60
25200;DHT22;33094;48.782;9.162;2022-08-04T06:15:45;24.60;94.90
25200;DHT22;33094;48.782;9.162;2022-08-04T06:18:12;24.10;94.50
25200;DHT22;33094;48.782;9.162;2022-08-04T06:20:39;24.00;94.70
25200;DHT22;33094;48.782;9.162;2022-08-04T06:23:10;23.80;95.20
25200;DHT22;33094;48.782;9.162;2022-08-04T06:25:47;24.00;94.90
25200;DHT22;33094;48.782;9.162;2022-08-04T06:28:16;24.10;95.00
25200;DHT22;33094;48.782;9.162;2022-08-04T06:30:42;23.90;95.20
25200;DHT22;33094;48.782;9.162;2022-08-04T06:33:13;24.10;94.90
25200;DHT22;33094;48.782;9.162;2022-08-04T06:35:49;24.20;94.80
25200;DHT22;33094;48.782;9.162;2022-08-04T06:38:15;24.20;94.80
25200;DHT22;33094;48.782;9.162;2022-08-04T06:40:40;24.30;94.70
25200;DHT22;33094;48.782;9.162;2022-08-04T06:43:06;24.50;94.50
25200;DHT22;33094;48.782;9.162;2022-08-04T06:45:32;24.60;94.40
25200;DHT22;33094;48.782;9.162;2022-08-04T06:47:58;24.60;94.50
25200;DHT22;33094;48.782;9.162;2022-08-04T06:50:25;24.60;94.40
25200;DHT22;33094;48.782;9.162;2022-08-04T06:52:51;24.80;94.60
25200;DHT22;33094;48.782;9.162;2022-08-04T06:55:16;24.80;94.60
25200;DHT22;33094;48.782;9.162;2022-08-04T06:57:42;24.90;94.60
25200;DHT22;33094;48.782;9.162;2022-08-04T07:00:11;24.90;94.60
25200;DHT22;33094;48.782;9.162;2022-08-04T07:02:43;24.80;94.90
25200;DHT22;33094;48.782;9.162;2022-08-04T07:05:09;24.90;94.70
25200;DHT22;33094;48.782;9.162;2022-08-04T07:07:35;25.00;94.70
25200;DHT22;33094;48.782;9.162;2022-08-04T07:10:01;25.50;94.90
25200;DHT22;33094;48.782;9.162;2022-08-04T07:12:26;25.10;94.70
25200;DHT22;33094;48.782;9.162;2022-08-04T07:14:52;25.20;94.60
25200;DHT22;33094;48.782;9.162;2022-08-04T07:17:17;25.20;95.00
25200;DHT22;33094;48.782;9.162;2022-08-04T07:19:45;25.30;94.60
25200;DHT22;33094;48.782;9.162;2022-08-04T07:22:10;25.40;94.40
25200;DHT22;33094;48.782;9.162;2022-08-04T07:24:37;25.60;94.10
25200;DHT22;33094;48.782;9.162;2022-08-04T07:27:03;25.70;94.20
25200;DHT22;33094;48.782;9.162;2022-08-04T07:29:29;25.70;94.20
25200;DHT22;33094;48.782;9.162;2022-08-04T07:31:55;25.70;93.90
25200;DHT22;33094;48.782;9.162;2022-08-04T07:34:21;26.00;93.80
25200;DHT22;33094;48.782;9.162;2022-08-04T07:36:48;26.10;94.00
25200;DHT22;33094;48.782;9.162;2022-08-04T07:39:14;26.00;94.00
25200;DHT22;33094;48.782;9.162;2022-08-04T07:41:40;26.30;93.90
25200;DHT22;33094;48.782;9.162;2022-08-04T07:44:07;26.30;93.70
25200;DHT22;33094;48.782;9.162;2022-08-04T07:46:33;26.50;93.60
25200;DHT22;33094;48.782;9.162;2022-08-04T07:48:59;26.60;93.60
25200;DHT22;33094;48.782;9.162;2022-08-04T07:51:25;26.70;93.50
25200;DHT22;33094;48.782;9.162;2022-08-04T07:53:51;26.90;93.30
25200;DHT22;33094;48.782;9.162;2022-08-04T07:56:17;27.20;93.30
25200;DHT22;33094;48.782;9.162;2022-08-04T07:58:42;27.30;92.90
25200;DHT22;33094;48.782;9.162;2022-08-04T08:01:08;27.50;92.70
25200;DHT22;33094;48.782;9.162;2022-08-04T08:03:34;27.70;92.50
25200;DHT22;33094;48.782;9.162;2022-08-04T08:06:00;27.90;92.10
25200;DHT22;33094;48.782;9.162;2022-08-04T08:08:25;27.90;92.10
25200;DHT22;33094;48.782;9.162;2022-08-04T08:10:51;28.10;92.20
25200;DHT22;33094;48.782;9.162;2022-08-04T08:13:17;28.40;91.80
25200;DHT22;33094;48.782;9.162;2022-08-04T08:15:44;28.80;91.60
25200;DHT22;33094;48.782;9.162;2022-08-04T08:18:10;28.90;91.00
25200;DHT22;33094;48.782;9.162;2022-08-04T08:20:35;29.20;90.80
25200;DHT22;33094;48.782;9.162;2022-08-04T08:23:01;29.80;89.80
25200;DHT22;33094;48.782;9.162;2022-08-04T08:25:28;30.20;87.90
25200;DHT22;33094;48.782;9.162;2022-08-04T08:27:54;30.40;87.40
25200;DHT22;33094;48.782;9.162;2022-08-04T08:30:19;30.50;86.10
25200;DHT22;33094;48.782;9.162;2022-08-04T08:32:45;31.20;83.40
25200;DHT22;33094;48.782;9.162;2022-08-04T08:35:10;31.60;83.40
25200;DHT22;33094;48.782;9.162;2022-08-04T08:37:55;32.80;80.20
25200;DHT22;33094;48.782;9.162;2022-08-04T08:40:28;33.50;79.50
25200;DHT22;33094;48.782;9.162;2022-08-04T08:45:30;34.70;76.30
25200;DHT22;33094;48.782;9.162;2022-08-04T08:53:44;33.40;76.70
25200;DHT22;33094;48.782;9.162;2022-08-04T08:56:21;32.50;77.90
25200;DHT22;33094;48.782;9.162;2022-08-04T09:04:03;35.00;75.00
25200;DHT22;33094;48.782;9.162;2022-08-04T09:09:52;35.40;74.50
25200;DHT22;33094;48.782;9.162;2022-08-04T09:15:12;36.10;73.10
25200;DHT22;33094;48.782;9.162;2022-08-04T09:17:44;35.40;74.10
25200;DHT22;33094;48.782;9.162;2022-08-04T09:23:12;36.10;72.70
25200;DHT22;33094;48.782;9.162;2022-08-04T09:25:40;35.20;74.40
25200;DHT22;33094;48.782;9.162;2022-08-04T09:28:10;36.00;73.30
25200;DHT22;33094;48.782;9.162;2022-08-04T09:38:12;37.20;70.60
25200;DHT22;33094;48.782;9.162;2022-08-04T09:46:36;36.90;71.10
25200;DHT22;33094;48.782;9.162;2022-08-04T09:49:09;37.90;68.80
25200;DHT22;33094;48.782;9.162;2022-08-04T09:54:21;37.80;68.80
25200;DHT22;33094;48.782;9.162;2022-08-04T09:57:01;37.60;68.90
25200;DHT22;33094;48.782;9.162;2022-08-04T09:59:36;38.10;68.00
25200;DHT22;33094;48.782;9.162;2022-08-04T10:02:05;36.80;69.20
25200;DHT22;33094;48.782;9.162;2022-08-04T10:04:32;38.30;68.80
25200;DHT22;33094;48.782;9.162;2022-08-04T10:19:55;37.70;65.80
25200;DHT22;33094;48.782;9.162;2022-08-04T10:22:25;37.90;66.10
25200;DHT22;33094;48.782;9.162;2022-08-04T10:27:27;37.30;66.40
25200;DHT22;33094;48.782;9.162;2022-08-04T10:29:54;38.60;65.00
25200;DHT22;33094;48.782;9.162;2022-08-04T10:32:25;38.90;63.00
25200;DHT22;33094;48.782;9.162;2022-08-04T10:37:26;38.50;63.70
25200;DHT22;33094;48.782;9.162;2022-08-04T10:39:54;38.30;63.40
25200;DHT22;33094;48.782;9.162;2022-08-04T10:42:41;39.20;62.70
25200;DHT22;33094;48.782;9.162;2022-08-04T10:45:19;38.80;61.90
25200;DHT22;33094;48.782;9.162;2022-08-04T10:48:50;38.40;63.10
25200;DHT22;33094;48.782;9.162;2022-08-04T10:50:44;38.80;61.90
25200;DHT22;33094;48.782;9.162;2022-08-04T10:53:16;38.70;61.20
25200;DHT22;33094;48.782;9.162;2022-08-04T10:55:46;37.70;62.00
25200;DHT22;33094;48.782;9.162;2022-08-04T10:58:15;39.20;60.80
25200;DHT22;33094;48.782;9.162;2022-08-04T11:00:43;38.50;60.30
25200;DHT22;33094;48.782;9.162;2022-08-04T11:03:16;39.10;60.00
25200;DHT22;33094;48.782;9.162;2022-08-04T11:08:17;39.00;60.00
25200;DHT22;33094;48.782;9.162;2022-08-04T11:10:46;39.50;59.60
25200;DHT22;33094;48.782;9.162;2022-08-04T11:13:14;39.40;58.60
25200;DHT22;33094;48.782;9.162;2022-08-04T11:15:51;40.30;58.50
25200;DHT22;33094;48.782;9.162;2022-08-04T11:18:34;40.10;58.00
25200;DHT22;33094;48.782;9.162;2022-08-04T11:21:02;39.60;57.80
25200;DHT22;33094;48.782;9.162;2022-08-04T11:23:34;39.30;58.90
25200;DHT22;33094;48.782;9.162;2022-08-04T11:31:03;39.40;57.50
25200;DHT22;33094;48.782;9.162;2022-08-04T11:41:11;39.60;57.70
25200;DHT22;33094;48.782;9.162;2022-08-04T11:43:48;38.40;58.80
25200;DHT22;33094;48.782;9.162;2022-08-04T11:46:17;37.80;58.90
25200;DHT22;33094;48.782;9.162;2022-08-04T11:48:50;37.40;59.40
25200;DHT22;33094;48.782;9.162;2022-08-04T11:51:17;39.50;58.50
25200;DHT22;33094;48.782;9.162;2022-08-04T11:53:43;40.30;57.00
25200;DHT22;33094;48.782;9.162;2022-08-04T11:56:10;40.50;56.60
25200;DHT22;33094;48.782;9.162;2022-08-04T11:58:37;39.70;57.20
25200;DHT22;33094;48.782;9.162;2022-08-04T12:01:05;38.90;58.00
25200;DHT22;33094;48.782;9.162;2022-08-04T12:03:35;37.20;59.70
25200;DHT22;33094;48.782;9.162;2022-08-04T12:06:08;36.50;61.20
25200;DHT22;33094;48.782;9.162;2022-08-04T12:11:37;36.90;59.80
25200;DHT22;33094;48.782;9.162;2022-08-04T12:20:00;35.50;61.40
25200;DHT22;33094;48.782;9.162;2022-08-04T12:22:42;35.50;62.20
25200;DHT22;33094;48.782;9.162;2022-08-04T12:25:00;37.30;60.10
25200;DHT22;33094;48.782;9.162;2022-08-04T12:27:29;36.30;60.20
25200;DHT22;33094;48.782;9.162;2022-08-04T12:29:55;35.80;62.60
25200;DHT22;33094;48.782;9.162;2022-08-04T12:32:25;38.90;58.20
25200;DHT22;33094;48.782;9.162;2022-08-04T12:39:59;40.40;56.00
25200;DHT22;33094;48.782;9.162;2022-08-04T12:45:18;40.40;57.10
25200;DHT22;33094;48.782;9.162;2022-08-04T12:47:44;39.60;56.20
25200;DHT22;33094;48.782;9.162;2022-08-04T12:50:12;39.40;57.00
25200;DHT22;33094;48.782;9.162;2022-08-04T12:52:42;40.00;56.30
25200;DHT22;33094;48.782;9.162;2022-08-04T12:55:09;40.10;56.00
25200;DHT22;33094;48.782;9.162;2022-08-04T12:57:34;40.20;55.00
25200;DHT22;33094;48.782;9.162;2022-08-04T13:00:00;39.20;55.70
25200;DHT22;33094;48.782;9.162;2022-08-04T13:02:27;39.50;55.90
25200;DHT22;33094;48.782;9.162;2022-08-04T13:04:54;40.00;55.40
25200;DHT22;33094;48.782;9.162;2022-08-04T13:07:21;40.20;56.60
25200;DHT22;33094;48.782;9.162;2022-08-04T13:09:47;40.40;55.80
25200;DHT22;33094;48.782;9.162;2022-08-04T13:12:14;39.60;55.00
25200;DHT22;33094;48.782;9.162;2022-08-04T13:14:40;39.60;55.80
25200;DHT22;33094;48.782;9.162;2022-08-04T13:17:09;40.40;54.50
25200;DHT22;33094;48.782;9.162;2022-08-04T13:19:35;39.50;56.00
25200;DHT22;33094;48.782;9.162;2022-08-04T13:22:01;37.40;58.20
25200;DHT22;33094;48.782;9.162;2022-08-04T13:24:27;36.90;60.10
25200;DHT22;33094;48.782;9.162;2022-08-04T13:26:54;36.80;58.70
25200;DHT22;33094;48.782;9.162;2022-08-04T13:29:21;36.60;58.90
25200;DHT22;33094;48.782;9.162;2022-08-04T13:31:48;36.70;59.40
25200;DHT22;33094;48.782;9.162;2022-08-04T13:34:14;36.60;59.10
25200;DHT22;33094;48.782;9.162;2022-08-04T13:36:40;36.70;58.70
25200;DHT22;33094;48.782;9.162;2022-08-04T13:39:12;36.40;59.10
25200;DHT22;33094;48.782;9.162;2022-08-04T13:41:42;36.10;59.80
25200;DHT22;33094;48.782;9.162;2022-08-04T13:44:09;35.70;59.70
25200;DHT22;33094;48.782;9.162;2022-08-04T13:46:45;36.20;59.30
25200;DHT22;33094;48.782;9.162;2022-08-04T13:49:15;36.20;59.60
25200;DHT22;33094;48.782;9.162;2022-08-04T13:51:46;36.40;59.80
25200;DHT22;33094;48.782;9.162;2022-08-04T13:54:12;36.80;59.20
25200;DHT22;33094;48.782;9.162;2022-08-04T13:56:38;36.90;58.90
25200;DHT22;33094;48.782;9.162;2022-08-04T13:59:07;36.70;59.20
25200;DHT22;33094;48.782;9.162;2022-08-04T14:01:34;36.80;58.90
25200;DHT22;33094;48.782;9.162;2022-08-04T14:04:17;36.90;58.90
25200;DHT22;33094;48.782;9.162;2022-08-04T14:06:48;36.90;58.60
25200;DHT22;33094;48.782;9.162;2022-08-04T14:09:15;36.80;58.30
25200;DHT22;33094;48.782;9.162;2022-08-04T14:11:45;36.60;58.40
25200;DHT22;33094;48.782;9.162;2022-08-04T14:14:15;36.20;59.20
25200;DHT22;33094;48.782;9.162;2022-08-04T14:19:26;36.10;59.10
25200;DHT22;33094;48.782;9.162;2022-08-04T14:21:52;36.10;59.30
25200;DHT22;33094;48.782;9.162;2022-08-04T14:24:24;36.50;58.90
25200;DHT22;33094;48.782;9.162;2022-08-04T14:26:50;36.60;59.20
25200;DHT22;33094;48.782;9.162;2022-08-04T14:29:16;36.60;58.90
25200;DHT22;33094;48.782;9.162;2022-08-04T14:31:42;36.70;58.70
25200;DHT22;33094;48.782;9.162;2022-08-04T14:34:08;36.60;59.10
25200;DHT22;33094;48.782;9.162;2022-08-04T14:36:38;36.50;58.80
25200;DHT22;33094;48.782;9.162;2022-08-04T14:39:04;36.70;58.50
25200;DHT22;33094;48.782;9.162;2022-08-04T14:41:42;36.50;58.70
25200;DHT22;33094;48.782;9.162;2022-08-04T14:44:08;36.80;58.80
25200;DHT22;33094;48.782;9.162;2022-08-04T14:46:34;36.70;58.70
25200;DHT22;33094;48.782;9.162;2022-08-04T14:49:13;36.70;60.10
25200;DHT22;33094;48.782;9.162;2022-08-04T14:51:42;36.90;58.50
25200;DHT22;33094;48.782;9.162;2022-08-04T14:54:09;36.80;58.50
25200;DHT22;33094;48.782;9.162;2022-08-04T14:56:35;36.40;58.80
25200;DHT22;33094;48.782;9.162;2022-08-04T14:59:03;36.40;58.90
25200;DHT22;33094;48.782;9.162;2022-08-04T15:01:29;36.70;58.40
25200;DHT22;33094;48.782;9.162;2022-08-04T15:03:55;36.70;58.70
25200;DHT22;33094;48.782;9.162;2022-08-04T15:06:24;36.70;58.60
25200;DHT22;33094;48.782;9.162;2022-08-04T15:08:51;36.60;58.60
25200;DHT22;33094;48.782;9.162;2022-08-04T15:11:17;36.30;58.40
25200;DHT22;33094;48.782;9.162;2022-08-04T15:13:45;36.20;58.80
25200;DHT22;33094;48.782;9.162;2022-08-04T15:16:11;36.00;58.40
25200;DHT22;33094;48.782;9.162;2022-08-04T15:18:38;35.90;58.60
25200;DHT22;33094;48.782;9.162;2022-08-04T15:21:07;36.10;59.20
25200;DHT22;33094;48.782;9.162;2022-08-04T15:23:56;36.10;58.60
25200;DHT22;33094;48.782;9.162;2022-08-04T15:26:31;36.10;58.60
25200;DHT22;33094;48.782;9.162;2022-08-04T15:29:02;36.10;58.70
25200;DHT22;33094;48.782;9.162;2022-08-04T15:31:39;34.50;57.80
25200;DHT22;33094;48.782;9.162;2022-08-04T15:34:07;35.60;58.20
25200;DHT22;33094;48.782;9.162;2022-08-04T15:36:41;36.00;59.40
25200;DHT22;33094;48.782;9.162;2022-08-04T15:47:18;35.90;59.00
25200;DHT22;33094;48.782;9.162;2022-08-04T15:49:43;35.80;59.30
25200;DHT22;33094;48.782;9.162;2022-08-04T15:52:10;35.90;60.10
25200;DHT22;33094;48.782;9.162;2022-08-04T15:54:36;35.90;59.10
25200;DHT22;33094;48.782;9.162;2022-08-04T15:57:03;36.00;59.00
25200;DHT22;33094;48.782;9.162;2022-08-04T16:04:35;35.70;59.10
25200;DHT22;33094;48.782;9.162;2022-08-04T16:07:03;36.00;60.30
25200;DHT22;33094;48.782;9.162;2022-08-04T16:09:29;35.80;59.00
25200;DHT22;33094;48.782;9.162;2022-08-04T16:11:55;35.80;59.10
25200;DHT22;33094;48.782;9.162;2022-08-04T16:14:39;35.50;59.50
25200;DHT22;33094;48.782;9.162;2022-08-04T16:17:22;35.70;59.40
25200;DHT22;33094;48.782;9.162;2022-08-04T16:20:11;35.60;59.10
25200;DHT22;33094;48.782;9.162;2022-08-04T16:22:38;35.60;59.30
25200;DHT22;33094;48.782;9.162;2022-08-04T16:25:07;35.50;59.10
25200;DHT22;33094;48.782;9.162;2022-08-04T16:30:05;35.30;59.70
25200;DHT22;33094;48.782;9.162;2022-08-04T16:32:38;35.50;60.00
25200;DHT22;33094;48.782;9.162;2022-08-04T16:35:05;35.30;60.00
25200;DHT22;33094;48.782;9.162;2022-08-04T16:37:42;35.40;60.00
25200;DHT22;33094;48.782;9.162;2022-08-04T16:42:52;35.50;60.00
25200;DHT22;33094;48.782;9.162;2022-08-04T16:45:18;35.30;59.60
25200;DHT22;33094;48.782;9.162;2022-08-04T16:50:15;35.20;60.20
25200;DHT22;33094;48.782;9.162;2022-08-04T16:52:45;35.30;59.90
25200;DHT22;33094;48.782;9.162;2022-08-04T16:55:11;35.20;59.90
25200;DHT22;33094;48.782;9.162;2022-08-04T16:57:39;35.10;59.80
25200;DHT22;33094;48.782;9.162;2022-08-04T17:00:04;35.10;59.80
25200;DHT22;33094;48.782;9.162;2022-08-04T17:02:33;35.00;60.10
25200;DHT22;33094;48.782;9.162;2022-08-04T17:04:59;35.10;60.20
25200;DHT22;33094;48.782;9.162;2022-08-04T17:07:24;35.00;60.10
25200;DHT22;33094;48.782;9.162;2022-08-04T17:09:55;34.70;61.70
25200;DHT22;33094;48.782;9.162;2022-08-04T17:12:26;34.90;60.10
25200;DHT22;33094;48.782;9.162;2022-08-04T17:14:51;35.10;60.80
25200;DHT22;33094;48.782;9.162;2022-08-04T17:17:18;35.10;59.90
25200;DHT22;33094;48.782;9.162;2022-08-04T17:19:52;34.90;60.30
25200;DHT22;33094;48.782;9.162;2022-08-04T17:22:21;34.90;60.30
25200;DHT22;33094;48.782;9.162;2022-08-04T17:24:46;34.90;60.50
25200;DHT22;33094;48.782;9.162;2022-08-04T17:27:13;34.70;61.00
25200;DHT22;33094;48.782;9.162;2022-08-04T17:29:39;34.60;62.40
25200;DHT22;33094;48.782;9.162;2022-08-04T17:32:04;34.60;61.20
25200;DHT22;33094;48.782;9.162;2022-08-04T17:34:30;34.70;60.10
25200;DHT22;33094;48.782;9.162;2022-08-04T17:37:02;34.80;60.00
25200;DHT22;33094;48.782;9.162;2022-08-04T17:39:27;34.80;60.50
25200;DHT22;33094;48.782;9.162;2022-08-04T17:41:56;34.70;61.20
25200;DHT22;33094;48.782;9.162;2022-08-04T17:44:33;34.50;61.30
25200;DHT22;33094;48.782;9.162;2022-08-04T17:46:58;34.40;61.40
25200;DHT22;33094;48.782;9.162;2022-08-04T17:49:32;34.30;61.40
25200;DHT22;33094;48.782;9.162;2022-08-04T17:51:58;34.30;61.40
25200;DHT22;33094;48.782;9.162;2022-08-04T17:56:56;34.40;61.40
25200;DHT22;33094;48.782;9.162;2022-08-04T17:59:24;34.30;61.90
25200;DHT22;33094;48.782;9.162;2022-08-04T18:06:51;34.00;62.70
25200;DHT22;33094;48.782;9.162;2022-08-04T18:09:21;34.10;62.30
25200;DHT22;33094;48.782;9.162;2022-08-04T18:11:54;33.90;63.10
25200;DHT22;33094;48.782;9.162;2022-08-04T18:14:20;33.80;63.30
25200;DHT22;33094;48.782;9.162;2022-08-04T18:16:45;33.90;62.80
25200;DHT22;33094;48.782;9.162;2022-08-04T18:19:12;33.80;63.80
25200;DHT22;33094;48.782;9.162;2022-08-04T18:21:38;33.60;63.60
25200;DHT22;33094;48.782;9.162;2022-08-04T18:24:04;33.50;63.40
25200;DHT22;33094;48.782;9.162;2022-08-04T18:26:30;32.20;62.90
25200;DHT22;33094;48.782;9.162;2022-08-04T18:28:56;33.30;64.00
25200;DHT22;33094;48.782;9.162;2022-08-04T18:31:22;33.20;66.20
25200;DHT22;33094;48.782;9.162;2022-08-04T18:33:47;33.40;64.20
25200;DHT22;33094;48.782;9.162;2022-08-04T18:36:13;33.20;66.40
25200;DHT22;33094;48.782;9.162;2022-08-04T18:41:10;32.80;67.30
25200;DHT22;33094;48.782;9.162;2022-08-04T18:43:36;32.60;67.40
25200;DHT22;33094;48.782;9.162;2022-08-04T18:46:04;32.50;67.70
25200;DHT22;33094;48.782;9.162;2022-08-04T18:48:30;32.60;67.00
25200;DHT22;33094;48.782;9.162;2022-08-04T18:50:55;32.50;67.60
25200;DHT22;33094;48.782;9.162;2022-08-04T18:53:21;32.30;68.30
25200;DHT22;33094;48.782;9.162;2022-08-04T18:55:47;32.20;68.60
25200;DHT22;33094;48.782;9.162;2022-08-04T18:58:12;32.00;69.10
25200;DHT22;33094;48.782;9.162;2022-08-04T19:00:38;31.80;69.00
25200;DHT22;33094;48.782;9.162;2022-08-04T19:03:03;31.80;69.30
25200;DHT22;33094;48.782;9.162;2022-08-04T19:05:29;31.70;70.00
25200;DHT22;33094;48.782;9.162;2022-08-04T19:07:54;31.60;71.80
25200;DHT22;33094;48.782;9.162;2022-08-04T19:10:20;31.50;71.80
25200;DHT22;33094;48.782;9.162;2022-08-04T19:12:45;31.40;72.80
25200;DHT22;33094;48.782;9.162;2022-08-04T19:15:11;31.30;72.70
25200;DHT22;33094;48.782;9.162;2022-08-04T19:17:37;31.20;72.80
25200;DHT22;33094;48.782;9.162;2022-08-04T19:20:04;31.00;73.10
25200;DHT22;33094;48.782;9.162;2022-08-04T19:22:30;31.00;73.10
25200;DHT22;33094;48.782;9.162;2022-08-04T19:24:56;31.00;73.00
25200;DHT22;33094;48.782;9.162;2022-08-04T19:27:24;30.90;73.30
25200;DHT22;33094;48.782;9.162;2022-08-04T19:29:51;30.80;73.70
25200;DHT22;33094;48.782;9.162;2022-08-04T19:32:19;30.80;73.70
25200;DHT22;33094;48.782;9.162;2022-08-04T19:34:47;30.80;73.50
25200;DHT22;33094;48.782;9.162;2022-08-04T19:37:16;30.70;74.10
25200;DHT22;33094;48.782;9.162;2022-08-04T19:39:42;30.60;74.20
25200;DHT22;33094;48.782;9.162;2022-08-04T19:42:07;30.60;74.50
25200;DHT22;33094;48.782;9.162;2022-08-04T19:44:33;30.50;74.80
25200;DHT22;33094;48.782;9.162;2022-08-04T19:46:58;30.20;75.70
25200;DHT22;33094;48.782;9.162;2022-08-04T19:49:24;30.20;75.80
25200;DHT22;33094;48.782;9.162;2022-08-04T19:51:50;30.20;75.80
25200;DHT22;33094;48.782;9.162;2022-08-04T19:54:16;30.00;75.70
25200;DHT22;33094;48.782;9.162;2022-08-04T19:56:41;30.00;76.20
25200;DHT22;33094;48.782;9.162;2022-08-04T19:59:08;29.90;76.60
25200;DHT22;33094;48.782;9.162;2022-08-04T20:01:33;29.80;76.70